Погода Рембазана неделю

Атырауская область, Казахстан

13 - 19 июля
  • 13июля
    Сегодня
    +19°
    +30°
    Ясно и безоблачно
    ВремяПогодаТемператураВлажностьДавлениеВетер, м/сВероятность осадков
    02:00Ясно и безоблачно+22°C29 %756 мм4.3 м/с2 %
    05:00Ясно и безоблачно+18°C35 %756 мм3.4 м/с2 %
    08:00Ясно и безоблачно+20°C32 %756 мм5.3 м/с2 %
    11:00Ясно и безоблачно+25°C29 %755 мм7.6 м/с2 %
    14:00Ясно и безоблачно+27°C18 %754 мм8.2 м/с2 %
    17:00Ясно и безоблачно+29°C20 %754 мм8.6 м/с2 %
    20:00Ясно и безоблачно+29°C24 %753 мм7.2 м/с2 %
    23:00Ясно и безоблачно+24°C28 %754 мм4.0 м/с2 %
  • 14июля
    Воскресенье
    +22°
    +34°
    Небольшая облачность
    ВремяПогодаТемператураВлажностьДавлениеВетер, м/сВероятность осадков
    02:00Ясно и безоблачно+21°C33 %754 мм3.8 м/с2 %
    05:00Ясно и безоблачно+19°C42 %754 мм4.5 м/с2 %
    08:00Ясно и безоблачно+21°C54 %755 мм5.0 м/с2 %
    11:00Пасмурно, сплошная облачность+26°C45 %755 мм6.1 м/с2 %
    14:00Небольшая облачность+30°C34 %754 мм6.6 м/с2 %
    17:00Практически безоблачно+33°C25 %754 мм7.1 м/с2 %
    20:00Облачно с прояснениями+33°C29 %754 мм6.0 м/с2 %
    23:00Ясно и безоблачно+28°C37 %755 мм2.2 м/с2 %
  • 15июля
    Понедельник
    +21°
    +36°
    Практически безоблачно
    ВремяПогодаТемператураВлажностьДавлениеВетер, м/сВероятность осадков
    02:00Ясно и безоблачно+25°C42 %755 мм2.0 м/с2 %
    05:00Ясно и безоблачно+23°C49 %755 мм2.1 м/с2 %
    08:00Ясно и безоблачно+25°C46 %756 мм2.5 м/с2 %
    11:00Ясно и безоблачно+31°C37 %756 мм4.1 м/с2 %
    14:00Практически безоблачно+34°C29 %756 мм4.7 м/с2 %
    17:00Ясно и безоблачно+35°C26 %755 мм4.6 м/с3 %
    20:00Ясно и безоблачно+33°C26 %755 мм3.2 м/с2 %
    23:00Ясно и безоблачно+29°C35 %756 мм1.9 м/с2 %
  • 16июля
    Вторник
    +21°
    +34°
    Ясно и безоблачно
    ВремяПогодаТемператураВлажностьДавлениеВетер, м/сВероятность осадков
    02:00Ясно и безоблачно+25°C42 %756 мм1.6 м/с2 %
    05:00Ясно и безоблачно+23°C46 %756 мм1.8 м/с2 %
    08:00Ясно и безоблачно+25°C39 %756 мм2.3 м/с2 %
    11:00Ясно и безоблачно+33°C26 %757 мм4.3 м/с2 %
    14:00Ясно и безоблачно+35°C21 %756 мм5.2 м/с2 %
    17:00Ясно и безоблачно+34°C20 %756 мм4.8 м/с2 %
    20:00Ясно и безоблачно+33°C20 %756 мм3.4 м/с2 %
    23:00Ясно и безоблачно+28°C28 %757 мм1.3 м/с2 %
  • 17июля
    Среда
    +20°
    +35°
    Практически безоблачно
    ВремяПогодаТемператураВлажностьДавлениеВетер, м/сВероятность осадков
    02:00Ясно и безоблачно+24°C38 %757 мм1.2 м/с2 %
    05:00Ясно и безоблачно+22°C44 %757 мм2.0 м/с2 %
    08:00Ясно и безоблачно+25°C44 %758 мм2.8 м/с2 %
    11:00Ясно и безоблачно+30°C35 %758 мм3.8 м/с2 %
    14:00Практически безоблачно+32°C26 %758 мм5.0 м/с3 %
    17:00Практически безоблачно+34°C22 %757 мм5.3 м/с8 %
    20:00Практически безоблачно+32°C23 %757 мм3.5 м/с4 %
    23:00Ясно и безоблачно+27°C29 %757 мм1.7 м/с3 %
Мы используем cookies
Соглашаюсь